Time;durP1;ratioP1;P1;durP2;ratioP2;P2;SDS_P1;SDS_P2;PMS_P1;PMS_P2;Temp;Humidity;BMP_temperature;BMP_pressure;BME280_temperature;BME280_humidity;BME280_pressure;Samples;Min_cycle;Max_cycle;Signal;HPM_P1;HPM_P2
2021/01/17 00:01:27;;;;;;;13.80;6.95;;;3.70;47.90;;;;;;5012563;28;20064;-75
2021/01/17 00:03:53;;;;;;;16.98;8.30;;;3.70;48.00;;;;;;5013353;28;20049;-75
2021/01/17 00:06:19;;;;;;;12.35;6.35;;;3.70;48.30;;;;;;5013369;28;20511;-75
2021/01/17 00:08:44;;;;;;;11.48;6.38;;;3.70;48.40;;;;;;5012901;28;20025;-75
2021/01/17 00:11:14;;;;;;;11.27;6.32;;;3.70;48.40;;;;;;5013005;28;20443;-76
2021/01/17 00:13:40;;;;;;;11.60;6.50;;;3.70;48.10;;;;;;5013453;28;20022;-75
2021/01/17 00:16:06;;;;;;;9.18;5.68;;;3.70;48.10;;;;;;5013104;28;20036;-75
2021/01/17 00:18:33;;;;;;;12.20;7.20;;;3.70;48.20;;;;;;5011629;28;20036;-75
2021/01/17 00:20:59;;;;;;;10.13;6.03;;;3.70;48.10;;;;;;5024310;28;20522;-75
2021/01/17 00:23:25;;;;;;;11.10;6.35;;;3.70;48.10;;;;;;5012688;28;20025;-75
2021/01/17 00:25:51;;;;;;;11.10;6.00;;;3.70;48.70;;;;;;5011572;28;20479;-75
2021/01/17 00:28:17;;;;;;;8.45;5.65;;;3.70;48.30;;;;;;5012611;28;20525;-75
2021/01/17 00:30:43;;;;;;;12.35;7.30;;;3.70;48.40;;;;;;5027922;28;20097;-75
2021/01/17 00:33:09;;;;;;;9.80;6.05;;;3.70;48.40;;;;;;5010922;28;20030;-75
2021/01/17 00:35:35;;;;;;;11.82;6.85;;;3.70;48.40;;;;;;5012768;28;20436;-75
2021/01/17 00:38:02;;;;;;;12.80;7.00;;;3.70;48.40;;;;;;5011823;28;20391;-75
2021/01/17 00:40:28;;;;;;;11.15;7.07;;;3.70;48.30;;;;;;5015863;28;20036;-75
2021/01/17 00:42:55;;;;;;;11.38;6.78;;;3.70;48.30;;;;;;5011530;28;20057;-75
2021/01/17 00:45:28;;;;;;;10.93;7.00;;;3.60;48.20;;;;;;5012671;28;20026;-75
2021/01/17 00:47:54;;;;;;;10.38;6.93;;;3.60;48.20;;;;;;5012563;28;20376;-75
2021/01/17 00:50:21;;;;;;;10.80;6.70;;;3.60;48.20;;;;;;5012636;28;20030;-76
2021/01/17 00:52:52;;;;;;;10.75;6.88;;;3.60;48.30;;;;;;5012657;28;20080;-75
2021/01/17 00:55:17;;;;;;;10.57;6.32;;;3.60;48.00;;;;;;5011982;28;20038;-75
2021/01/17 00:57:43;;;;;;;11.68;6.68;;;3.60;48.20;;;;;;5007896;28;20026;-76
2021/01/17 01:00:12;;;;;;;10.88;6.38;;;3.60;48.40;;;;;;5006427;28;20033;-75
2021/01/17 01:02:39;;;;;;;14.02;8.05;;;3.60;48.50;;;;;;5011314;28;20021;-76
2021/01/17 01:05:06;;;;;;;10.88;6.93;;;3.60;48.30;;;;;;5006062;28;20030;-75
2021/01/17 01:07:32;;;;;;;11.77;7.13;;;3.50;48.30;;;;;;5002618;28;20030;-76
2021/01/17 01:09:57;;;;;;;13.30;7.60;;;3.50;48.30;;;;;;5012260;28;20034;-75
2021/01/17 01:12:23;;;;;;;12.70;7.32;;;3.50;48.30;;;;;;5011823;28;20546;-76
2021/01/17 01:14:49;;;;;;;19.38;8.05;;;3.50;48.50;;;;;;5012088;28;20038;-75
2021/01/17 01:17:15;;;;;;;14.25;8.23;;;3.50;48.70;;;;;;5011801;28;20037;-76
2021/01/17 01:19:41;;;;;;;15.23;8.38;;;3.50;48.90;;;;;;5007163;28;20026;-75
2021/01/17 01:22:07;;;;;;;15.70;8.70;;;3.50;48.90;;;;;;5006574;28;20045;-75
2021/01/17 01:24:33;;;;;;;15.43;9.40;;;3.50;49.00;;;;;;5011294;28;20164;-75
2021/01/17 01:26:59;;;;;;;12.98;8.02;;;3.40;48.80;;;;;;5010389;28;20153;-75
2021/01/17 01:29:25;;;;;;;15.65;9.13;;;3.40;48.80;;;;;;5023467;28;20045;-76
2021/01/17 01:31:52;;;;;;;12.57;7.95;;;3.40;48.70;;;;;;5004941;28;20129;-75
2021/01/17 01:34:17;;;;;;;13.07;7.85;;;3.40;48.80;;;;;;5012136;28;20190;-75
2021/01/17 01:36:44;;;;;;;13.48;7.03;;;3.40;48.80;;;;;;5011449;28;20123;-75
2021/01/17 01:39:12;;;;;;;10.75;6.22;;;3.40;49.00;;;;;;5010399;28;20073;-76
2021/01/17 01:41:40;;;;;;;20.63;7.00;;;3.40;49.10;;;;;;5011605;28;20018;-75
2021/01/17 01:44:07;;;;;;;22.20;7.63;;;3.40;49.10;;;;;;5011984;28;20054;-75
2021/01/17 01:46:38;;;;;;;12.70;6.97;;;3.50;49.20;;;;;;5010362;28;20026;-75
2021/01/17 01:49:04;;;;;;;12.45;7.78;;;3.50;49.30;;;;;;5014426;28;20060;-75
2021/01/17 01:51:30;;;;;;;14.75;8.43;;;3.50;49.20;;;;;;5005775;28;20027;-75
2021/01/17 01:53:57;;;;;;;11.63;6.78;;;3.50;49.10;;;;;;5009193;28;20028;-75
2021/01/17 01:56:24;;;;;;;12.00;6.97;;;3.50;49.20;;;;;;5003494;28;20022;-75
2021/01/17 01:58:54;;;;;;;14.02;7.43;;;3.50;49.30;;;;;;5015316;28;20030;-74
2021/01/17 02:01:22;;;;;;;14.23;8.40;;;3.50;49.30;;;;;;5013742;28;20066;-74
2021/01/17 02:03:49;;;;;;;17.73;7.78;;;3.50;49.30;;;;;;5015377;28;20483;-74
2021/01/17 02:06:20;;;;;;;14.20;8.40;;;3.50;49.40;;;;;;5013751;28;20038;-74
2021/01/17 02:09:34;;;;;;;13.75;8.25;;;3.50;49.40;;;;;;5015489;28;20014;-74
2021/01/17 02:12:13;;;;;;;14.80;7.70;;;3.50;49.40;;;;;;4973910;28;20067;-74
2021/01/17 02:14:53;;;;;;;16.30;8.18;;;3.50;49.30;;;;;;4973665;28;20440;-75
2021/01/17 02:17:21;;;;;;;14.50;8.07;;;3.60;49.40;;;;;;4974047;28;20465;-74
2021/01/17 02:20:08;;;;;;;13.20;7.70;;;3.50;49.40;;;;;;4957136;28;20061;-77
2021/01/17 02:22:58;;;;;;;12.18;7.30;;;3.50;49.40;;;;;;4973663;28;20520;-74
2021/01/17 02:25:25;;;;;;;13.55;8.02;;;3.50;49.50;;;;;;4957230;28;20417;-74
2021/01/17 02:27:52;;;;;;;16.08;7.82;;;3.60;49.40;;;;;;4961313;28;20090;-74
2021/01/17 02:30:20;;;;;;;13.05;7.70;;;3.60;49.30;;;;;;4970161;28;20412;-74
2021/01/17 02:32:50;;;;;;;11.93;7.70;;;3.50;49.10;;;;;;4973568;28;20034;-74
2021/01/17 02:35:17;;;;;;;13.95;8.25;;;3.60;49.20;;;;;;4972495;28;20042;-75
2021/01/17 02:37:51;;;;;;;13.85;9.00;;;3.60;49.10;;;;;;4955683;28;20457;-74
2021/01/17 02:40:29;;;;;;;13.75;7.70;;;3.50;49.20;;;;;;4973494;28;20145;-74
2021/01/17 02:42:54;;;;;;;17.05;7.90;;;3.60;49.70;;;;;;4973044;28;20135;-75
2021/01/17 02:45:20;;;;;;;13.15;7.60;;;3.60;49.20;;;;;;4968119;28;20396;-75
2021/01/17 02:47:46;;;;;;;13.07;7.57;;;3.60;49.30;;;;;;4985375;28;20480;-74
2021/01/17 02:50:12;;;;;;;12.73;7.55;;;3.60;49.30;;;;;;5009905;28;20083;-74
2021/01/17 02:53:28;;;;;;;12.57;7.95;;;3.60;49.40;;;;;;5014058;28;20427;-74
2021/01/17 02:55:55;;;;;;;17.10;9.73;;;3.60;49.50;;;;;;5010920;28;20056;-76
2021/01/17 02:58:24;;;;;;;15.32;8.75;;;3.50;49.30;;;;;;5013380;28;20026;-76
2021/01/17 03:00:54;;;;;;;15.88;8.80;;;3.50;49.10;;;;;;5026479;28;20108;-77
2021/01/17 03:03:22;;;;;;;14.25;8.52;;;3.50;49.00;;;;;;5013490;28;20037;-76
2021/01/17 03:05:48;;;;;;;16.05;8.60;;;3.50;49.10;;;;;;5013816;28;20440;-76
2021/01/17 03:08:15;;;;;;;17.75;9.20;;;3.50;49.00;;;;;;5014082;28;20026;-76
2021/01/17 03:10:43;;;;;;;13.20;8.38;;;3.40;48.90;;;;;;5010914;28;20053;-74
2021/01/17 03:13:10;;;;;;;15.68;8.73;;;3.50;49.10;;;;;;5000062;28;20022;-73
2021/01/17 03:15:36;;;;;;;16.95;7.97;;;3.40;49.20;;;;;;5003462;28;20034;-74
2021/01/17 03:18:02;;;;;;;16.90;9.57;;;3.40;49.20;;;;;;5007073;28;20026;-76
2021/01/17 03:20:28;;;;;;;12.15;7.63;;;3.40;49.20;;;;;;4997974;28;20051;-76
2021/01/17 03:22:54;;;;;;;16.63;8.55;;;3.40;49.10;;;;;;4992083;28;20038;-76
2021/01/17 03:25:20;;;;;;;14.50;8.20;;;3.40;49.10;;;;;;4994148;28;20045;-76
2021/01/17 03:27:46;;;;;;;13.57;8.80;;;3.40;49.20;;;;;;5014189;28;20375;-74
2021/01/17 03:30:12;;;;;;;14.27;8.00;;;3.40;49.30;;;;;;5014034;28;20482;-73
2021/01/17 03:32:37;;;;;;;20.75;8.13;;;3.40;49.40;;;;;;5013916;28;20025;-73
2021/01/17 03:35:04;;;;;;;12.95;8.40;;;3.40;49.40;;;;;;5013338;28;20101;-74
2021/01/17 03:37:29;;;;;;;13.55;7.95;;;3.40;49.40;;;;;;5013724;28;20065;-74
2021/01/17 03:39:55;;;;;;;13.13;7.97;;;3.40;49.40;;;;;;5013728;28;20029;-74
2021/01/17 03:42:21;;;;;;;13.60;7.63;;;3.40;49.50;;;;;;5013839;28;20022;-74
2021/01/17 03:44:48;;;;;;;12.68;7.82;;;3.40;49.60;;;;;;5012476;28;20105;-74
2021/01/17 03:47:14;;;;;;;15.00;9.15;;;3.40;49.70;;;;;;5013682;28;20052;-74
2021/01/17 03:49:40;;;;;;;13.15;8.35;;;3.50;49.70;;;;;;5012447;28;20034;-74
2021/01/17 03:52:06;;;;;;;12.40;7.60;;;3.50;49.60;;;;;;5013578;28;20390;-74
2021/01/17 03:54:32;;;;;;;15.20;8.68;;;3.50;49.70;;;;;;5013566;28;20037;-74
2021/01/17 03:56:58;;;;;;;14.82;8.35;;;3.50;49.80;;;;;;5013276;28;20479;-74
2021/01/17 03:59:23;;;;;;;11.80;7.28;;;3.50;49.70;;;;;;4996310;28;20030;-74
2021/01/17 04:01:51;;;;;;;14.93;7.75;;;3.50;50.00;;;;;;4993876;28;20023;-73
2021/01/17 04:04:16;;;;;;;14.73;7.80;;;3.50;49.80;;;;;;4993748;28;20045;-74
2021/01/17 04:06:42;;;;;;;16.75;9.18;;;3.50;49.80;;;;;;5008919;28;20062;-74
2021/01/17 04:09:08;;;;;;;13.85;8.57;;;3.50;49.70;;;;;;4993675;28;20465;-74
2021/01/17 04:11:34;;;;;;;14.55;8.90;;;3.50;49.70;;;;;;4993674;28;20043;-74
2021/01/17 04:14:00;;;;;;;13.57;8.77;;;3.50;49.70;;;;;;5008774;28;20388;-73
2021/01/17 04:16:25;;;;;;;14.98;8.82;;;3.40;49.60;;;;;;4993634;28;20026;-74
2021/01/17 04:18:51;;;;;;;17.17;9.65;;;3.40;49.50;;;;;;4993558;28;20387;-74
2021/01/17 04:21:17;;;;;;;23.30;9.43;;;3.30;49.50;;;;;;5002200;28;20049;-73
2021/01/17 04:23:43;;;;;;;16.23;9.73;;;3.30;49.50;;;;;;5013105;28;20025;-74
2021/01/17 04:26:09;;;;;;;15.82;9.23;;;3.30;49.60;;;;;;5012428;28;20034;-73
2021/01/17 04:28:36;;;;;;;19.42;9.85;;;3.20;49.50;;;;;;5011746;28;20542;-74
2021/01/17 04:31:01;;;;;;;17.85;10.82;;;3.20;49.70;;;;;;5013025;28;20104;-74
2021/01/17 04:33:27;;;;;;;18.90;10.60;;;3.20;49.80;;;;;;5012917;28;20045;-73
2021/01/17 04:35:53;;;;;;;18.80;10.35;;;3.10;49.80;;;;;;5027954;28;20393;-74
2021/01/17 04:38:18;;;;;;;18.35;10.05;;;3.10;49.90;;;;;;5012889;28;20531;-74
2021/01/17 04:40:44;;;;;;;17.48;9.82;;;3.00;50.10;;;;;;5012188;28;20037;-74
2021/01/17 04:43:20;;;;;;;17.10;9.68;;;3.00;50.10;;;;;;5012532;28;20115;-74
2021/01/17 04:45:48;;;;;;;18.25;10.55;;;3.00;50.20;;;;;;5011741;28;20029;-76
2021/01/17 04:48:15;;;;;;;25.55;10.82;;;3.00;50.40;;;;;;5012842;28;20177;-74
2021/01/17 04:50:42;;;;;;;15.50;9.82;;;3.00;50.50;;;;;;5012861;28;20026;-74
2021/01/17 04:53:10;;;;;;;17.73;10.35;;;3.00;50.70;;;;;;5012148;28;20030;-73
2021/01/17 04:55:38;;;;;;;17.17;9.57;;;3.00;50.70;;;;;;5012109;28;20450;-74
2021/01/17 04:58:16;;;;;;;19.30;10.43;;;2.90;50.70;;;;;;5008922;28;20039;-73
2021/01/17 05:00:48;;;;;;;18.42;10.35;;;2.90;50.80;;;;;;5011326;28;20033;-74
2021/01/17 05:03:34;;;;;;;15.95;9.80;;;2.90;50.70;;;;;;5012857;28;20379;-76
2021/01/17 05:06:41;;;;;;;24.80;11.48;;;2.90;50.80;;;;;;4992973;28;20019;-74
2021/01/17 05:09:07;;;;;;;18.23;10.55;;;2.80;50.70;;;;;;4991637;28;20493;-74
2021/01/17 05:11:32;;;;;;;17.88;10.25;;;2.80;50.70;;;;;;5006120;28;20053;-74
2021/01/17 05:14:12;;;;;;;16.33;9.43;;;2.70;50.70;;;;;;5027588;28;20024;-74
2021/01/17 05:16:40;;;;;;;17.40;9.40;;;2.70;50.80;;;;;;5012492;28;20030;-73
2021/01/17 05:19:17;;;;;;;16.52;9.00;;;2.70;50.80;;;;;;5008234;28;20042;-74
2021/01/17 05:21:47;;;;;;;17.13;9.30;;;2.60;50.90;;;;;;5024976;28;20503;-74
2021/01/17 05:24:15;;;;;;;20.58;9.77;;;2.60;51.10;;;;;;5012544;28;20076;-74
2021/01/17 05:26:50;;;;;;;17.27;9.95;;;2.50;51.30;;;;;;5014390;28;20034;-74
2021/01/17 05:29:19;;;;;;;18.52;11.00;;;2.50;51.50;;;;;;5014376;28;20034;-74
2021/01/17 05:31:49;;;;;;;16.13;10.23;;;2.50;51.60;;;;;;5014988;28;20497;-73
2021/01/17 05:34:18;;;;;;;16.98;8.95;;;2.50;51.70;;;;;;5014799;28;20022;-74
2021/01/17 05:36:44;;;;;;;17.35;9.88;;;2.50;51.70;;;;;;5016080;28;20498;-74
2021/01/17 05:39:10;;;;;;;16.33;9.13;;;2.50;51.70;;;;;;5014713;28;20036;-74
2021/01/17 05:41:35;;;;;;;13.30;8.43;;;2.50;51.60;;;;;;5016016;28;20149;-75
2021/01/17 05:44:01;;;;;;;14.18;8.63;;;2.50;51.60;;;;;;5015944;28;20080;-75
2021/01/17 05:46:27;;;;;;;14.52;8.60;;;2.50;51.50;;;;;;5015880;28;20088;-74
2021/01/17 05:49:13;;;;;;;18.08;10.23;;;2.50;51.50;;;;;;5031196;28;20041;-75
2021/01/17 05:51:39;;;;;;;16.25;9.68;;;2.50;51.50;;;;;;5015559;28;20045;-75
2021/01/17 05:54:08;;;;;;;13.40;8.23;;;2.50;51.40;;;;;;5019394;28;20021;-75
2021/01/17 05:56:36;;;;;;;21.10;11.15;;;2.50;51.30;;;;;;5020524;28;20049;-74
2021/01/17 05:59:05;;;;;;;21.45;10.27;;;2.50;51.30;;;;;;5001309;28;20030;-75
2021/01/17 06:01:34;;;;;;;17.23;10.40;;;2.50;51.30;;;;;;4996134;28;20034;-75
2021/01/17 06:04:12;;;;;;;18.05;10.48;;;2.50;51.30;;;;;;5011633;28;20054;-74
2021/01/17 06:06:38;;;;;;;20.70;10.98;;;2.40;51.90;;;;;;5014336;28;20040;-74
2021/01/17 06:09:04;;;;;;;20.65;10.95;;;2.40;51.40;;;;;;5014198;28;20557;-75
2021/01/17 06:11:31;;;;;;;16.23;9.80;;;2.40;51.40;;;;;;5015439;28;20036;-75
2021/01/17 06:14:00;;;;;;;16.65;9.60;;;2.40;51.50;;;;;;5015409;28;20384;-74
2021/01/17 06:16:38;;;;;;;26.77;11.18;;;2.40;51.50;;;;;;5015383;28;20076;-74
2021/01/17 06:19:06;;;;;;;20.30;12.02;;;2.30;51.50;;;;;;5015263;28;20387;-74
2021/01/17 06:21:33;;;;;;;20.25;11.23;;;2.30;51.60;;;;;;5014775;28;20061;-75
2021/01/17 06:24:09;;;;;;;19.85;11.60;;;2.30;51.60;;;;;;5013846;28;20026;-74
2021/01/17 06:26:37;;;;;;;19.83;11.30;;;2.30;51.70;;;;;;5013614;28;20034;-74
2021/01/17 06:29:05;;;;;;;21.08;12.45;;;2.20;51.90;;;;;;5015145;28;20439;-74
2021/01/17 06:31:32;;;;;;;21.27;12.02;;;2.20;52.00;;;;;;5015041;28;20538;-75
2021/01/17 06:34:12;;;;;;;21.70;11.77;;;2.10;52.10;;;;;;5014489;28;20029;-74
2021/01/17 06:36:40;;;;;;;23.33;12.27;;;2.10;52.10;;;;;;5013952;28;20113;-74
2021/01/17 06:39:22;;;;;;;20.48;12.80;;;2.00;52.20;;;;;;5014803;28;20028;-75
2021/01/17 06:41:53;;;;;;;21.60;11.80;;;2.00;52.30;;;;;;5014778;28;20057;-75
2021/01/17 06:44:31;;;;;;;19.25;11.13;;;1.90;52.40;;;;;;5014878;28;20026;-75
2021/01/17 06:46:57;;;;;;;17.20;10.52;;;1.90;52.50;;;;;;5014769;28;20454;-74
2021/01/17 06:49:31;;;;;;;19.95;11.75;;;1.90;52.60;;;;;;5014667;28;20022;-74
2021/01/17 06:51:57;;;;;;;20.77;11.52;;;1.90;52.80;;;;;;5013449;28;20021;-74
2021/01/17 06:54:31;;;;;;;24.58;12.02;;;1.90;52.90;;;;;;5014707;28;20030;-75
2021/01/17 06:56:59;;;;;;;23.00;11.93;;;1.80;53.00;;;;;;5014201;28;20026;-74
2021/01/17 06:59:33;;;;;;;22.60;11.77;;;1.80;53.10;;;;;;5007780;28;20105;-74
2021/01/17 07:02:14;;;;;;;21.25;12.07;;;1.80;53.20;;;;;;4993592;28;20022;-75
2021/01/17 07:05:02;;;;;;;22.63;12.18;;;1.80;53.30;;;;;;5005356;28;20376;-75
2021/01/17 07:07:44;;;;;;;21.67;12.23;;;1.80;53.40;;;;;;5032730;28;20018;-75
2021/01/17 07:10:11;;;;;;;21.85;13.00;;;1.70;53.40;;;;;;5032819;28;20032;-75
2021/01/17 07:13:01;;;;;;;21.95;12.27;;;1.70;53.50;;;;;;5032738;28;20025;-75
2021/01/17 07:15:33;;;;;;;23.48;11.88;;;1.70;53.60;;;;;;5034019;28;20053;-75
2021/01/17 07:18:10;;;;;;;21.92;12.73;;;1.60;53.60;;;;;;5033962;28;20426;-74
2021/01/17 07:20:40;;;;;;;23.17;13.65;;;1.60;53.70;;;;;;4996949;28;20594;-74
2021/01/17 07:23:08;;;;;;;25.05;13.48;;;1.60;53.80;;;;;;4991439;28;20033;-75
2021/01/17 07:25:36;;;;;;;18.67;11.30;;;1.60;53.80;;;;;;5013575;28;20084;-75
2021/01/17 07:28:04;;;;;;;24.08;11.55;;;1.60;53.70;;;;;;5013336;28;20104;-74
2021/01/17 07:30:39;;;;;;;22.30;12.55;;;1.60;53.70;;;;;;5013989;28;20049;-75
2021/01/17 07:33:06;;;;;;;19.63;11.80;;;1.60;53.70;;;;;;5006550;28;20025;-74
2021/01/17 07:35:46;;;;;;;22.75;12.27;;;1.70;53.60;;;;;;5018673;28;20092;-74
2021/01/17 07:38:17;;;;;;;22.20;12.18;;;1.70;53.70;;;;;;5010907;28;20026;-74
2021/01/17 07:40:53;;;;;;;21.20;11.82;;;1.70;53.70;;;;;;5013333;28;20058;-74
2021/01/17 07:43:21;;;;;;;25.80;11.43;;;1.80;53.80;;;;;;5014605;28;20033;-74
2021/01/17 07:45:47;;;;;;;18.45;11.00;;;1.80;53.90;;;;;;5012969;28;20109;-75
2021/01/17 07:48:14;;;;;;;18.33;11.05;;;1.90;53.90;;;;;;5029000;28;20030;-74
2021/01/17 07:50:46;;;;;;;20.88;11.00;;;1.90;53.90;;;;;;5034131;28;20029;-75
2021/01/17 07:53:39;;;;;;;20.38;10.38;;;2.00;53.90;;;;;;5034116;28;20029;-75
2021/01/17 07:56:16;;;;;;;21.48;12.50;;;2.10;53.90;;;;;;5034159;28;20032;-74
2021/01/17 07:58:50;;;;;;;24.13;13.00;;;2.10;53.90;;;;;;5034303;28;20025;-75
2021/01/17 08:01:30;;;;;;;21.88;12.25;;;2.20;53.80;;;;;;5017008;28;20491;-74
2021/01/17 08:04:02;;;;;;;22.50;12.48;;;2.30;53.80;;;;;;5029372;28;20034;-74
2021/01/17 08:06:37;;;;;;;23.70;14.07;;;2.40;53.80;;;;;;5014159;28;20061;-75
2021/01/17 08:09:39;;;;;;;24.67;13.82;;;2.40;54.50;;;;;;5029357;28;20026;-74
2021/01/17 08:12:05;;;;;;;20.45;11.98;;;2.50;53.80;;;;;;5013939;28;20368;-75
2021/01/17 08:14:32;;;;;;;25.83;13.98;;;2.60;53.70;;;;;;5014045;28;20033;-75
2021/01/17 08:17:20;;;;;;;25.70;14.35;;;2.70;53.60;;;;;;5012701;28;20479;-75
2021/01/17 08:19:55;;;;;;;23.77;13.40;;;2.80;53.50;;;;;;5013713;28;20026;-74
2021/01/17 08:22:24;;;;;;;35.22;12.68;;;2.90;53.20;;;;;;5013839;28;20471;-75
2021/01/17 08:24:53;;;;;;;23.85;12.13;;;2.90;53.10;;;;;;5013856;28;20048;-75
2021/01/17 08:27:31;;;;;;;22.33;12.88;;;3.00;53.10;;;;;;5014053;28;20434;-75
2021/01/17 08:30:02;;;;;;;23.42;12.20;;;3.10;53.10;;;;;;5013359;28;20030;-75
2021/01/17 08:32:45;;;;;;;23.70;11.85;;;3.20;53.00;;;;;;5013303;28;20030;-74
2021/01/17 08:35:10;;;;;;;22.75;11.80;;;3.30;52.90;;;;;;5011897;28;20080;-74
2021/01/17 08:37:43;;;;;;;20.88;12.27;;;3.40;53.00;;;;;;5013711;28;20018;-74
2021/01/17 08:40:10;;;;;;;23.88;13.18;;;3.50;52.90;;;;;;5013621;28;20037;-75
2021/01/17 08:42:49;;;;;;;22.58;12.80;;;3.60;52.70;;;;;;5012349;28;20037;-74
2021/01/17 08:45:20;;;;;;;29.38;14.18;;;3.70;52.30;;;;;;5013607;28;20026;-75
2021/01/17 08:47:47;;;;;;;27.25;13.10;;;3.70;51.80;;;;;;5024373;28;20358;-75
2021/01/17 08:50:30;;;;;;;25.98;13.75;;;3.80;51.50;;;;;;5033503;28;20021;-74
2021/01/17 08:53:35;;;;;;;30.73;14.25;;;3.70;51.20;;;;;;5033160;28;20021;-75
2021/01/17 08:56:12;;;;;;;28.98;14.60;;;3.70;51.00;;;;;;5011485;28;20313;-75
2021/01/17 08:58:38;;;;;;;23.95;13.80;;;3.70;50.90;;;;;;5010746;28;20026;-75
2021/01/17 09:01:08;;;;;;;27.67;15.05;;;3.60;50.70;;;;;;4996552;28;20042;-75
2021/01/17 09:03:42;;;;;;;25.77;14.90;;;3.50;50.70;;;;;;4991736;28;20081;-75
2021/01/17 09:06:11;;;;;;;24.67;14.30;;;3.40;50.70;;;;;;4975497;28;20050;-75
2021/01/17 09:08:39;;;;;;;34.97;18.60;;;3.40;50.90;;;;;;4991321;28;20091;-74
2021/01/17 09:11:25;;;;;;;27.23;15.65;;;3.30;50.90;;;;;;4991647;28;20526;-74
2021/01/17 09:14:24;;;;;;;30.00;15.38;;;3.30;50.90;;;;;;4991785;28;20053;-75
2021/01/17 09:16:57;;;;;;;24.58;13.15;;;3.20;51.20;;;;;;4933828;29;20043;-75
2021/01/17 09:19:27;;;;;;;29.17;17.02;;;3.20;51.40;;;;;;4933684;29;20044;-74
2021/01/17 09:21:54;;;;;;;27.05;15.05;;;3.10;51.30;;;;;;4932965;29;20053;-75
2021/01/17 09:24:25;;;;;;;35.10;16.70;;;3.10;51.50;;;;;;4933745;29;20150;-74
2021/01/17 09:26:53;;;;;;;36.67;17.02;;;3.10;51.60;;;;;;4927985;29;20040;-74
2021/01/17 09:29:24;;;;;;;29.52;16.50;;;3.10;51.70;;;;;;4952931;29;20102;-74
2021/01/17 09:32:09;;;;;;;29.52;17.35;;;3.10;51.80;;;;;;4952788;29;20035;-75
2021/01/17 09:34:39;;;;;;;29.08;15.60;;;3.10;51.80;;;;;;4952176;29;20039;-74
2021/01/17 09:37:13;;;;;;;35.88;19.23;;;3.20;51.80;;;;;;4952971;29;20118;-75
2021/01/17 09:39:44;;;;;;;33.05;18.77;;;3.10;51.60;;;;;;4953190;29;20476;-74
2021/01/17 09:42:11;;;;;;;29.42;17.15;;;3.10;51.40;;;;;;4952781;29;20035;-75
2021/01/17 09:44:39;;;;;;;32.92;18.17;;;3.10;51.40;;;;;;4952886;29;20031;-75
2021/01/17 09:47:14;;;;;;;37.95;18.27;;;3.20;51.50;;;;;;4952684;29;20071;-74
2021/01/17 09:49:40;;;;;;;36.47;19.45;;;3.10;51.30;;;;;;4948723;28;20397;-75
2021/01/17 09:52:28;;;;;;;36.97;19.23;;;3.10;51.30;;;;;;4967184;28;20085;-75
2021/01/17 09:54:54;;;;;;;33.80;18.30;;;3.10;51.30;;;;;;5001500;28;20038;-75
2021/01/17 09:57:26;;;;;;;30.83;18.33;;;3.10;51.30;;;;;;5030616;28;20545;-74
2021/01/17 09:59:54;;;;;;;36.15;19.35;;;3.10;51.30;;;;;;5032912;28;20036;-75
2021/01/17 10:02:21;;;;;;;34.75;18.67;;;3.10;51.40;;;;;;5032717;28;20039;-74
2021/01/17 10:04:47;;;;;;;32.95;20.05;;;3.10;51.40;;;;;;5032730;28;20033;-75
2021/01/17 10:07:21;;;;;;;34.78;18.58;;;3.10;51.50;;;;;;5032621;28;20021;-74
2021/01/17 10:09:47;;;;;;;31.40;18.95;;;3.10;51.40;;;;;;5033328;28;20117;-75
2021/01/17 10:12:17;;;;;;;38.80;20.40;;;3.20;51.60;;;;;;5034889;28;20046;-75
2021/01/17 10:14:43;;;;;;;38.90;20.23;;;3.20;52.00;;;;;;5034788;28;20091;-75
2021/01/17 10:17:09;;;;;;;35.40;17.70;;;3.20;51.50;;;;;;5034826;28;20044;-74
2021/01/17 10:19:40;;;;;;;30.77;16.88;;;3.20;51.50;;;;;;5015553;28;20022;-75
2021/01/17 10:22:16;;;;;;;26.30;15.23;;;3.30;51.50;;;;;;5015974;28;20523;-75
2021/01/17 10:24:42;;;;;;;30.35;17.33;;;3.30;51.40;;;;;;5030810;28;20032;-74
2021/01/17 10:27:10;;;;;;;25.10;14.52;;;3.40;51.30;;;;;;5015844;28;20017;-74
2021/01/17 10:29:38;;;;;;;26.55;15.10;;;3.40;51.10;;;;;;5015903;28;20105;-74
2021/01/17 10:32:06;;;;;;;20.85;12.15;;;3.50;50.80;;;;;;5015783;28;20030;-74
2021/01/17 10:34:43;;;;;;;19.35;11.43;;;3.50;50.60;;;;;;5015279;28;20481;-75
2021/01/17 10:37:11;;;;;;;25.55;12.75;;;3.60;50.20;;;;;;5017751;28;20053;-74
2021/01/17 10:39:40;;;;;;;21.92;11.93;;;3.60;50.20;;;;;;5020936;28;20025;-75
2021/01/17 10:42:06;;;;;;;23.50;13.43;;;3.70;50.20;;;;;;5022065;28;20056;-74
2021/01/17 10:44:40;;;;;;;24.60;13.55;;;3.80;50.20;;;;;;5035864;28;20033;-75
2021/01/17 10:47:17;;;;;;;23.95;12.10;;;3.90;50.10;;;;;;5034457;28;20383;-74
2021/01/17 10:49:46;;;;;;;24.08;13.32;;;4.00;50.20;;;;;;5035400;28;20034;-74
2021/01/17 10:52:21;;;;;;;23.52;12.30;;;4.20;50.10;;;;;;5035589;28;20032;-75
2021/01/17 10:54:47;;;;;;;21.55;12.13;;;4.40;49.80;;;;;;5004474;28;20021;-76
2021/01/17 10:57:14;;;;;;;19.92;12.27;;;4.60;49.50;;;;;;5021148;28;20069;-76
2021/01/17 10:59:40;;;;;;;19.63;11.38;;;4.80;49.50;;;;;;5009874;28;20084;-75
2021/01/17 11:02:07;;;;;;;20.60;12.27;;;4.90;49.00;;;;;;5014897;28;20026;-76
2021/01/17 11:04:40;;;;;;;20.08;11.32;;;5.10;48.30;;;;;;5013784;28;20076;-76
2021/01/17 11:07:07;;;;;;;21.98;11.95;;;5.20;47.60;;;;;;5014151;28;20030;-75
2021/01/17 11:09:34;;;;;;;22.27;12.35;;;5.30;47.20;;;;;;5014901;28;20030;-76
2021/01/17 11:12:00;;;;;;;23.73;14.38;;;5.40;46.80;;;;;;5014970;28;20416;-75
2021/01/17 11:14:27;;;;;;;20.20;11.93;;;5.40;47.00;;;;;;5007912;28;20029;-75
2021/01/17 11:16:54;;;;;;;20.48;12.95;;;5.40;46.90;;;;;;5008173;28;20040;-76
2021/01/17 11:19:35;;;;;;;26.98;14.43;;;5.60;47.00;;;;;;5012704;28;20110;-76
2021/01/17 11:22:01;;;;;;;37.20;18.98;;;5.60;46.70;;;;;;5025960;28;20034;-76
2021/01/17 11:24:38;;;;;;;29.13;14.30;;;5.70;46.70;;;;;;5014301;28;20079;-76
2021/01/17 11:27:13;;;;;;;22.85;14.10;;;5.90;46.70;;;;;;5014635;28;20022;-76
2021/01/17 11:29:41;;;;;;;24.45;13.77;;;5.90;46.30;;;;;;5003506;28;20030;-76
2021/01/17 11:32:07;;;;;;;25.98;14.43;;;6.00;46.20;;;;;;5012963;28;20030;-75
2021/01/17 11:34:35;;;;;;;25.30;14.05;;;6.10;46.10;;;;;;5013826;28;20026;-76
2021/01/17 11:37:01;;;;;;;30.58;14.27;;;6.20;45.90;;;;;;5014185;28;20472;-76
2021/01/17 11:39:27;;;;;;;27.13;12.93;;;6.30;46.50;;;;;;5014055;28;20076;-76
2021/01/17 11:41:55;;;;;;;23.55;13.25;;;6.40;45.40;;;;;;5014091;28;20051;-76
2021/01/17 11:44:23;;;;;;;22.17;14.13;;;6.40;45.00;;;;;;5014258;28;20030;-76
2021/01/17 11:46:49;;;;;;;24.92;13.15;;;6.40;44.80;;;;;;5013784;28;20022;-76
2021/01/17 11:49:22;;;;;;;21.85;12.43;;;6.50;44.80;;;;;;5013657;28;20033;-76
2021/01/17 11:51:48;;;;;;;20.38;12.75;;;6.60;44.90;;;;;;5014306;28;20022;-76
2021/01/17 11:54:32;;;;;;;21.08;12.80;;;6.60;44.70;;;;;;5008271;28;20104;-76
2021/01/17 11:57:12;;;;;;;20.38;12.13;;;6.70;44.40;;;;;;5017133;28;20465;-76
2021/01/17 11:59:38;;;;;;;20.67;11.32;;;6.80;44.50;;;;;;5013447;28;20109;-76
2021/01/17 12:02:21;;;;;;;21.20;10.60;;;6.80;44.50;;;;;;5013940;28;20026;-75
2021/01/17 12:04:57;;;;;;;23.35;12.32;;;6.90;45.00;;;;;;5000405;28;20538;-76
2021/01/17 12:07:22;;;;;;;20.48;12.10;;;7.00;44.20;;;;;;5011135;28;20049;-75
2021/01/17 12:09:48;;;;;;;19.70;10.90;;;7.00;44.20;;;;;;5012383;28;20061;-76
2021/01/17 12:12:18;;;;;;;20.35;12.50;;;7.10;43.90;;;;;;5012083;28;20426;-77
2021/01/17 12:14:45;;;;;;;19.10;12.27;;;7.10;43.10;;;;;;5014283;28;20064;-75
2021/01/17 12:17:11;;;;;;;16.90;10.07;;;7.10;43.20;;;;;;5013640;28;20483;-75
2021/01/17 12:19:38;;;;;;;15.63;10.30;;;7.10;42.90;;;;;;5013095;28;20037;-75
2021/01/17 12:22:07;;;;;;;15.88;9.20;;;7.20;42.40;;;;;;5011675;28;20038;-75
2021/01/17 12:24:38;;;;;;;16.42;9.02;;;7.20;42.00;;;;;;5006115;28;20025;-75
2021/01/17 12:27:04;;;;;;;22.20;13.15;;;7.20;42.20;;;;;;5012389;28;20029;-75
2021/01/17 12:29:31;;;;;;;20.85;11.35;;;7.20;42.40;;;;;;5013515;28;20026;-76
2021/01/17 12:31:56;;;;;;;18.73;10.63;;;7.20;42.50;;;;;;5013116;28;20018;-78
2021/01/17 12:34:22;;;;;;;20.15;10.00;;;7.20;42.40;;;;;;5012159;28;20388;-77
2021/01/17 12:36:48;;;;;;;21.38;9.55;;;7.20;42.30;;;;;;5026466;28;20030;-77
2021/01/17 12:39:18;;;;;;;14.52;9.30;;;7.30;42.00;;;;;;5012856;28;20049;-77
2021/01/17 12:41:46;;;;;;;15.60;9.48;;;7.30;41.70;;;;;;5013789;28;20026;-77
2021/01/17 12:44:16;;;;;;;18.60;10.13;;;7.20;41.10;;;;;;5012375;28;20415;-77
2021/01/17 12:46:43;;;;;;;19.23;10.85;;;7.20;41.60;;;;;;5002269;28;20092;-77
2021/01/17 12:49:09;;;;;;;15.35;9.63;;;7.20;41.80;;;;;;5010586;28;20471;-77
2021/01/17 12:51:35;;;;;;;15.65;9.07;;;7.30;41.90;;;;;;5010175;28;20026;-77
2021/01/17 12:54:01;;;;;;;15.60;8.80;;;7.30;42.00;;;;;;5000915;28;20026;-77
2021/01/17 12:56:27;;;;;;;17.63;10.30;;;7.30;41.60;;;;;;5012919;28;20056;-77